Portelandia, Brazil
Current Conditions -  °F | °C
As of 9:00 PM on Wednesday 22 Oct 2014 (Local Time) from SBGO Reporting Station
Broken Clouds Broken Clouds  
Wind Chill: 79°   Ceiling: 10000
Heat Index: 80°   Visibility: 6mi
Dew Point: 61°   Wind: 3mph
Humidity: 54%   Direction: 100°E
Pressure: 30"   Gusts: NA
Location:  17.35°S, 52.68°W
Report Text: SBGO 222300Z 10003KT 040V170 9999 FEW040 BKN100 26/16 Q1016
Loading
Personal Weather Stations






























Interactive Weather Map
Tropical Storm Tracking
New forecast layout! Learn more

10-Day Weather Forecast

Advertisements
Track Severe Weather on mobile